sensor_id;sensor_type;location;lat;lon;timestamp;temperature;humidity
36548;DHT22;22551;52.206;4.856;2023-08-06T00:00:06;15.30;99.90
36548;DHT22;22551;52.206;4.856;2023-08-06T00:05:09;15.40;99.90
36548;DHT22;22551;52.206;4.856;2023-08-06T00:10:11;15.30;99.90
36548;DHT22;22551;52.206;4.856;2023-08-06T00:20:25;15.30;99.90
36548;DHT22;22551;52.206;4.856;2023-08-06T02:15:08;15.30;99.90
36548;DHT22;22551;52.206;4.856;2023-08-06T02:20:11;15.30;99.90
36548;DHT22;22551;52.206;4.856;2023-08-06T02:25:13;15.20;99.90
36548;DHT22;22551;52.206;4.856;2023-08-06T02:30:17;15.20;99.90
36548;DHT22;22551;52.206;4.856;2023-08-06T02:35:20;15.20;99.90
36548;DHT22;22551;52.206;4.856;2023-08-06T02:40:22;15.20;99.90
36548;DHT22;22551;52.206;4.856;2023-08-06T02:45:26;15.20;99.90
36548;DHT22;22551;52.206;4.856;2023-08-06T02:50:28;15.00;99.90
36548;DHT22;22551;52.206;4.856;2023-08-06T02:55:30;15.00;99.90
36548;DHT22;22551;52.206;4.856;2023-08-06T03:00:34;15.00;99.90
36548;DHT22;22551;52.206;4.856;2023-08-06T03:05:36;15.00;99.90
36548;DHT22;22551;52.206;4.856;2023-08-06T03:10:38;15.00;99.90
36548;DHT22;22551;52.206;4.856;2023-08-06T03:15:42;15.00;99.90
36548;DHT22;22551;52.206;4.856;2023-08-06T03:20:45;15.00;99.90
36548;DHT22;22551;52.206;4.856;2023-08-06T03:31:02;15.00;99.90
36548;DHT22;22551;52.206;4.856;2023-08-06T03:36:05;15.00;99.90
36548;DHT22;22551;52.206;4.856;2023-08-06T03:41:07;15.00;99.90
36548;DHT22;22551;52.206;4.856;2023-08-06T03:46:11;15.10;99.90
36548;DHT22;22551;52.206;4.856;2023-08-06T03:51:13;15.10;99.90
36548;DHT22;22551;52.206;4.856;2023-08-06T03:56:15;15.10;99.90
36548;DHT22;22551;52.206;4.856;2023-08-06T04:01:19;15.10;99.90
36548;DHT22;22551;52.206;4.856;2023-08-06T04:06:21;15.10;99.90
36548;DHT22;22551;52.206;4.856;2023-08-06T04:11:24;14.80;99.90
36548;DHT22;22551;52.206;4.856;2023-08-06T04:16:28;14.50;99.90
36548;DHT22;22551;52.206;4.856;2023-08-06T04:21:30;14.30;99.90
36548;DHT22;22551;52.206;4.856;2023-08-06T04:26:32;14.20;99.90
36548;DHT22;22551;52.206;4.856;2023-08-06T04:31:36;14.10;99.90
36548;DHT22;22551;52.206;4.856;2023-08-06T04:36:38;14.00;99.90
36548;DHT22;22551;52.206;4.856;2023-08-06T04:41:40;14.00;99.90
36548;DHT22;22551;52.206;4.856;2023-08-06T04:46:44;13.90;99.90
36548;DHT22;22551;52.206;4.856;2023-08-06T04:51:46;13.90;99.90
36548;DHT22;22551;52.206;4.856;2023-08-06T04:56:48;13.90;99.90
36548;DHT22;22551;52.206;4.856;2023-08-06T05:01:52;13.90;99.90
36548;DHT22;22551;52.206;4.856;2023-08-06T05:06:54;14.00;99.90
36548;DHT22;22551;52.206;4.856;2023-08-06T05:11:56;14.10;99.90
36548;DHT22;22551;52.206;4.856;2023-08-06T05:17:00;14.00;99.90
36548;DHT22;22551;52.206;4.856;2023-08-06T05:22:05;14.00;99.90
36548;DHT22;22551;52.206;4.856;2023-08-06T05:27:07;14.00;99.90
36548;DHT22;22551;52.206;4.856;2023-08-06T05:32:12;14.10;99.90
36548;DHT22;22551;52.206;4.856;2023-08-06T05:37:14;14.10;99.90
36548;DHT22;22551;52.206;4.856;2023-08-06T05:42:17;14.00;99.90
36548;DHT22;22551;52.206;4.856;2023-08-06T05:47:21;14.00;99.90
36548;DHT22;22551;52.206;4.856;2023-08-06T05:52:23;14.10;99.90
36548;DHT22;22551;52.206;4.856;2023-08-06T05:57:25;14.20;99.90
36548;DHT22;22551;52.206;4.856;2023-08-06T06:02:29;14.20;99.90
36548;DHT22;22551;52.206;4.856;2023-08-06T06:07:31;14.30;99.90
36548;DHT22;22551;52.206;4.856;2023-08-06T06:12:33;14.40;99.90
36548;DHT22;22551;52.206;4.856;2023-08-06T06:17:37;14.40;99.90
36548;DHT22;22551;52.206;4.856;2023-08-06T06:22:39;14.60;99.90
36548;DHT22;22551;52.206;4.856;2023-08-06T06:27:41;14.60;99.90
36548;DHT22;22551;52.206;4.856;2023-08-06T06:32:44;14.70;99.90
36548;DHT22;22551;52.206;4.856;2023-08-06T06:37:47;14.60;99.90
36548;DHT22;22551;52.206;4.856;2023-08-06T06:42:49;14.70;99.90
36548;DHT22;22551;52.206;4.856;2023-08-06T06:47:53;14.60;99.90
36548;DHT22;22551;52.206;4.856;2023-08-06T06:52:55;14.60;99.90
36548;DHT22;22551;52.206;4.856;2023-08-06T06:57:57;14.60;99.90
36548;DHT22;22551;52.206;4.856;2023-08-06T07:03:01;14.60;99.90
36548;DHT22;22551;52.206;4.856;2023-08-06T07:08:03;14.70;99.90
36548;DHT22;22551;52.206;4.856;2023-08-06T07:13:06;14.80;99.90
36548;DHT22;22551;52.206;4.856;2023-08-06T07:18:09;14.80;99.90
36548;DHT22;22551;52.206;4.856;2023-08-06T07:23:12;15.00;99.90
36548;DHT22;22551;52.206;4.856;2023-08-06T07:28:14;15.10;99.90
36548;DHT22;22551;52.206;4.856;2023-08-06T07:33:18;15.20;99.90
36548;DHT22;22551;52.206;4.856;2023-08-06T07:38:20;15.30;99.90
36548;DHT22;22551;52.206;4.856;2023-08-06T07:43:23;15.40;99.90
36548;DHT22;22551;52.206;4.856;2023-08-06T07:48:27;15.40;99.90
36548;DHT22;22551;52.206;4.856;2023-08-06T07:53:29;15.30;99.90
36548;DHT22;22551;52.206;4.856;2023-08-06T07:58:31;15.40;99.90
36548;DHT22;22551;52.206;4.856;2023-08-06T08:03:41;15.40;99.90
36548;DHT22;22551;52.206;4.856;2023-08-06T08:08:46;15.30;99.90
36548;DHT22;22551;52.206;4.856;2023-08-06T08:13:48;15.20;99.90
36548;DHT22;22551;52.206;4.856;2023-08-06T08:18:52;15.10;99.90
36548;DHT22;22551;52.206;4.856;2023-08-06T08:34:17;15.30;99.90
36548;DHT22;22551;52.206;4.856;2023-08-06T08:39:19;15.40;99.90
36548;DHT22;22551;52.206;4.856;2023-08-06T08:44:22;15.50;99.90
36548;DHT22;22551;52.206;4.856;2023-08-06T08:49:30;15.40;99.90
36548;DHT22;22551;52.206;4.856;2023-08-06T08:54:34;15.50;99.90
36548;DHT22;22551;52.206;4.856;2023-08-06T08:59:37;15.60;99.90
36548;DHT22;22551;52.206;4.856;2023-08-06T09:04:41;15.60;99.90
36548;DHT22;22551;52.206;4.856;2023-08-06T09:09:46;15.70;99.90
36548;DHT22;22551;52.206;4.856;2023-08-06T09:14:49;15.70;99.90
36548;DHT22;22551;52.206;4.856;2023-08-06T09:19:53;15.70;99.90
36548;DHT22;22551;52.206;4.856;2023-08-06T09:24:56;16.00;99.90
36548;DHT22;22551;52.206;4.856;2023-08-06T09:29:59;16.00;99.90
36548;DHT22;22551;52.206;4.856;2023-08-06T09:35:03;16.10;99.90
36548;DHT22;22551;52.206;4.856;2023-08-06T09:40:25;16.30;99.90
36548;DHT22;22551;52.206;4.856;2023-08-06T09:45:31;16.10;99.90
36548;DHT22;22551;52.206;4.856;2023-08-06T09:50:36;16.00;99.90
36548;DHT22;22551;52.206;4.856;2023-08-06T10:01:11;16.10;99.90
36548;DHT22;22551;52.206;4.856;2023-08-06T10:06:15;16.10;99.90
36548;DHT22;22551;52.206;4.856;2023-08-06T10:11:19;15.90;99.90
36548;DHT22;22551;52.206;4.856;2023-08-06T10:16:24;16.10;99.90
36548;DHT22;22551;52.206;4.856;2023-08-06T10:21:28;16.20;99.90
36548;DHT22;22551;52.206;4.856;2023-08-06T10:26:32;16.30;99.90
36548;DHT22;22551;52.206;4.856;2023-08-06T10:31:53;16.20;99.90
36548;DHT22;22551;52.206;4.856;2023-08-06T10:36:57;16.10;99.90
36548;DHT22;22551;52.206;4.856;2023-08-06T10:42:01;16.10;99.90
36548;DHT22;22551;52.206;4.856;2023-08-06T10:47:27;15.90;99.90
36548;DHT22;22551;52.206;4.856;2023-08-06T10:52:31;16.00;99.90
36548;DHT22;22551;52.206;4.856;2023-08-06T10:57:34;16.00;99.90
36548;DHT22;22551;52.206;4.856;2023-08-06T11:02:36;15.60;99.90
36548;DHT22;22551;52.206;4.856;2023-08-06T11:07:40;15.50;99.90
36548;DHT22;22551;52.206;4.856;2023-08-06T11:12:43;15.90;99.90
36548;DHT22;22551;52.206;4.856;2023-08-06T11:17:45;16.10;99.90
36548;DHT22;22551;52.206;4.856;2023-08-06T11:22:49;16.20;99.90
36548;DHT22;22551;52.206;4.856;2023-08-06T11:27:52;16.30;99.90
36548;DHT22;22551;52.206;4.856;2023-08-06T11:32:54;16.50;99.90
36548;DHT22;22551;52.206;4.856;2023-08-06T11:37:58;16.70;99.90
36548;DHT22;22551;52.206;4.856;2023-08-06T11:43:00;16.90;99.90
36548;DHT22;22551;52.206;4.856;2023-08-06T11:48:03;17.30;99.90
36548;DHT22;22551;52.206;4.856;2023-08-06T11:53:07;17.10;99.90
36548;DHT22;22551;52.206;4.856;2023-08-06T11:58:10;16.60;99.90
36548;DHT22;22551;52.206;4.856;2023-08-06T12:03:13;16.80;99.90
36548;DHT22;22551;52.206;4.856;2023-08-06T12:08:16;16.90;99.90
36548;DHT22;22551;52.206;4.856;2023-08-06T12:13:19;17.10;99.90
36548;DHT22;22551;52.206;4.856;2023-08-06T12:18:21;16.70;99.90
36548;DHT22;22551;52.206;4.856;2023-08-06T12:23:25;17.00;99.90
36548;DHT22;22551;52.206;4.856;2023-08-06T12:28:27;17.30;99.90
36548;DHT22;22551;52.206;4.856;2023-08-06T12:33:29;17.20;99.90
36548;DHT22;22551;52.206;4.856;2023-08-06T12:43:43;16.80;99.90
36548;DHT22;22551;52.206;4.856;2023-08-06T12:48:45;16.70;99.90
36548;DHT22;22551;52.206;4.856;2023-08-06T12:53:49;16.80;99.90
36548;DHT22;22551;52.206;4.856;2023-08-06T12:58:52;16.70;99.90
36548;DHT22;22551;52.206;4.856;2023-08-06T13:03:55;16.60;99.90
36548;DHT22;22551;52.206;4.856;2023-08-06T13:08:57;16.50;99.90
36548;DHT22;22551;52.206;4.856;2023-08-06T13:14:04;16.60;99.90
36548;DHT22;22551;52.206;4.856;2023-08-06T13:19:07;16.70;99.90
36548;DHT22;22551;52.206;4.856;2023-08-06T13:24:10;16.80;99.90
36548;DHT22;22551;52.206;4.856;2023-08-06T13:29:13;16.90;99.90
36548;DHT22;22551;52.206;4.856;2023-08-06T13:34:16;16.90;99.90
36548;DHT22;22551;52.206;4.856;2023-08-06T13:39:18;16.90;99.90
36548;DHT22;22551;52.206;4.856;2023-08-06T13:44:22;16.70;99.90
36548;DHT22;22551;52.206;4.856;2023-08-06T13:49:24;17.00;99.90
36548;DHT22;22551;52.206;4.856;2023-08-06T13:54:26;16.90;99.90
36548;DHT22;22551;52.206;4.856;2023-08-06T13:59:30;17.10;99.90
36548;DHT22;22551;52.206;4.856;2023-08-06T14:04:32;17.10;99.90
36548;DHT22;22551;52.206;4.856;2023-08-06T14:09:35;17.20;99.90
36548;DHT22;22551;52.206;4.856;2023-08-06T14:14:39;16.80;99.90
36548;DHT22;22551;52.206;4.856;2023-08-06T14:19:41;16.40;99.90
36548;DHT22;22551;52.206;4.856;2023-08-06T14:24:43;15.80;99.90
36548;DHT22;22551;52.206;4.856;2023-08-06T14:29:49;15.70;99.90
36548;DHT22;22551;52.206;4.856;2023-08-06T14:34:51;15.50;99.90
36548;DHT22;22551;52.206;4.856;2023-08-06T14:39:53;15.30;99.90
36548;DHT22;22551;52.206;4.856;2023-08-06T14:44:57;15.30;99.90
36548;DHT22;22551;52.206;4.856;2023-08-06T14:49:59;15.20;99.90
36548;DHT22;22551;52.206;4.856;2023-08-06T14:55:02;15.20;99.90
36548;DHT22;22551;52.206;4.856;2023-08-06T15:00:08;15.30;99.90
36548;DHT22;22551;52.206;4.856;2023-08-06T15:05:11;15.20;99.90
36548;DHT22;22551;52.206;4.856;2023-08-06T15:10:14;15.30;99.90
36548;DHT22;22551;52.206;4.856;2023-08-06T15:15:18;15.70;99.90
36548;DHT22;22551;52.206;4.856;2023-08-06T15:20:23;16.00;99.90
36548;DHT22;22551;52.206;4.856;2023-08-06T15:25:25;15.80;99.90
36548;DHT22;22551;52.206;4.856;2023-08-06T15:30:29;15.80;99.90
36548;DHT22;22551;52.206;4.856;2023-08-06T15:35:31;15.90;99.90
36548;DHT22;22551;52.206;4.856;2023-08-06T15:40:34;15.60;99.90
36548;DHT22;22551;52.206;4.856;2023-08-06T15:45:37;15.40;99.90
36548;DHT22;22551;52.206;4.856;2023-08-06T15:50:40;15.40;99.90
36548;DHT22;22551;52.206;4.856;2023-08-06T15:55:42;15.70;99.90
36548;DHT22;22551;52.206;4.856;2023-08-06T16:00:46;16.00;99.90
36548;DHT22;22551;52.206;4.856;2023-08-06T16:05:49;16.10;99.90
36548;DHT22;22551;52.206;4.856;2023-08-06T16:10:51;16.30;99.90
36548;DHT22;22551;52.206;4.856;2023-08-06T16:15:55;16.60;99.90
36548;DHT22;22551;52.206;4.856;2023-08-06T16:20:57;16.70;99.90
36548;DHT22;22551;52.206;4.856;2023-08-06T16:25:59;16.50;99.90
36548;DHT22;22551;52.206;4.856;2023-08-06T16:31:03;16.50;99.90
36548;DHT22;22551;52.206;4.856;2023-08-06T16:36:05;16.40;99.90
36548;DHT22;22551;52.206;4.856;2023-08-06T16:41:08;16.10;99.90
36548;DHT22;22551;52.206;4.856;2023-08-06T16:46:11;15.70;99.90
36548;DHT22;22551;52.206;4.856;2023-08-06T16:51:14;15.50;99.90
36548;DHT22;22551;52.206;4.856;2023-08-06T16:56:16;15.50;99.90
36548;DHT22;22551;52.206;4.856;2023-08-06T17:01:20;15.30;99.90
36548;DHT22;22551;52.206;4.856;2023-08-06T17:06:22;15.40;99.90
36548;DHT22;22551;52.206;4.856;2023-08-06T17:11:25;15.50;99.90
36548;DHT22;22551;52.206;4.856;2023-08-06T17:16:28;15.50;99.90
36548;DHT22;22551;52.206;4.856;2023-08-06T17:21:31;15.60;99.90
36548;DHT22;22551;52.206;4.856;2023-08-06T17:26:34;15.40;99.90
36548;DHT22;22551;52.206;4.856;2023-08-06T17:31:38;15.40;99.90
36548;DHT22;22551;52.206;4.856;2023-08-06T17:36:40;15.40;99.90
36548;DHT22;22551;52.206;4.856;2023-08-06T17:41:43;15.30;99.90
36548;DHT22;22551;52.206;4.856;2023-08-06T17:46:46;14.90;99.90
36548;DHT22;22551;52.206;4.856;2023-08-06T17:51:48;14.60;99.90
36548;DHT22;22551;52.206;4.856;2023-08-06T17:56:51;14.70;99.90
36548;DHT22;22551;52.206;4.856;2023-08-06T18:01:55;14.80;99.90
36548;DHT22;22551;52.206;4.856;2023-08-06T18:06:57;14.80;99.90
36548;DHT22;22551;52.206;4.856;2023-08-06T18:11:59;14.80;99.90
36548;DHT22;22551;52.206;4.856;2023-08-06T18:17:04;14.70;99.90
36548;DHT22;22551;52.206;4.856;2023-08-06T18:22:06;14.60;99.90
36548;DHT22;22551;52.206;4.856;2023-08-06T18:27:08;14.50;99.90
36548;DHT22;22551;52.206;4.856;2023-08-06T18:32:13;14.40;99.90
36548;DHT22;22551;52.206;4.856;2023-08-06T18:37:15;14.40;99.90
36548;DHT22;22551;52.206;4.856;2023-08-06T18:42:17;14.30;99.90
36548;DHT22;22551;52.206;4.856;2023-08-06T18:47:21;14.30;99.90
36548;DHT22;22551;52.206;4.856;2023-08-06T18:52:23;14.10;99.90
36548;DHT22;22551;52.206;4.856;2023-08-06T18:57:26;14.10;99.90
36548;DHT22;22551;52.206;4.856;2023-08-06T19:02:31;14.10;99.90
36548;DHT22;22551;52.206;4.856;2023-08-06T19:07:33;14.10;99.90
36548;DHT22;22551;52.206;4.856;2023-08-06T19:12:35;14.10;99.90
36548;DHT22;22551;52.206;4.856;2023-08-06T19:17:39;14.10;99.90
36548;DHT22;22551;52.206;4.856;2023-08-06T19:22:41;14.00;99.90
36548;DHT22;22551;52.206;4.856;2023-08-06T19:27:44;14.00;99.90
36548;DHT22;22551;52.206;4.856;2023-08-06T19:32:48;14.00;99.90
36548;DHT22;22551;52.206;4.856;2023-08-06T19:37:50;14.10;99.90
36548;DHT22;22551;52.206;4.856;2023-08-06T19:42:53;14.10;99.90
36548;DHT22;22551;52.206;4.856;2023-08-06T19:47:56;14.00;99.90
36548;DHT22;22551;52.206;4.856;2023-08-06T19:52:59;14.00;99.90
36548;DHT22;22551;52.206;4.856;2023-08-06T19:58:02;14.00;99.90
36548;DHT22;22551;52.206;4.856;2023-08-06T20:03:05;13.80;99.90
36548;DHT22;22551;52.206;4.856;2023-08-06T20:08:09;13.90;99.90
36548;DHT22;22551;52.206;4.856;2023-08-06T20:13:12;13.90;99.90
36548;DHT22;22551;52.206;4.856;2023-08-06T20:18:16;13.90;99.90
36548;DHT22;22551;52.206;4.856;2023-08-06T20:23:19;13.80;99.90
36548;DHT22;22551;52.206;4.856;2023-08-06T20:28:21;13.70;99.90
36548;DHT22;22551;52.206;4.856;2023-08-06T20:33:24;13.70;99.90
36548;DHT22;22551;52.206;4.856;2023-08-06T20:38:27;13.70;99.90
36548;DHT22;22551;52.206;4.856;2023-08-06T20:43:29;13.60;99.90
36548;DHT22;22551;52.206;4.856;2023-08-06T20:48:33;13.70;99.90
36548;DHT22;22551;52.206;4.856;2023-08-06T20:53:35;13.60;99.90
36548;DHT22;22551;52.206;4.856;2023-08-06T20:58:37;13.60;99.90
36548;DHT22;22551;52.206;4.856;2023-08-06T21:03:41;13.70;99.90
36548;DHT22;22551;52.206;4.856;2023-08-06T21:08:43;13.60;99.90
36548;DHT22;22551;52.206;4.856;2023-08-06T21:13:45;13.60;99.90
36548;DHT22;22551;52.206;4.856;2023-08-06T21:18:49;13.60;99.90
36548;DHT22;22551;52.206;4.856;2023-08-06T21:23:51;13.70;99.90
36548;DHT22;22551;52.206;4.856;2023-08-06T21:28:53;13.70;99.90
36548;DHT22;22551;52.206;4.856;2023-08-06T21:33:57;13.80;99.90
36548;DHT22;22551;52.206;4.856;2023-08-06T21:39:00;13.80;99.90
36548;DHT22;22551;52.206;4.856;2023-08-06T21:44:02;13.80;99.90
36548;DHT22;22551;52.206;4.856;2023-08-06T21:49:06;13.90;99.90
36548;DHT22;22551;52.206;4.856;2023-08-06T21:54:08;13.90;99.90
36548;DHT22;22551;52.206;4.856;2023-08-06T21:59:16;13.90;99.90
36548;DHT22;22551;52.206;4.856;2023-08-06T22:04:19;13.90;99.90
36548;DHT22;22551;52.206;4.856;2023-08-06T22:09:22;13.90;99.90
36548;DHT22;22551;52.206;4.856;2023-08-06T22:14:24;14.00;99.90
36548;DHT22;22551;52.206;4.856;2023-08-06T22:19:28;14.00;99.90
36548;DHT22;22551;52.206;4.856;2023-08-06T22:24:30;14.10;99.90
36548;DHT22;22551;52.206;4.856;2023-08-06T22:29:32;14.10;99.90
36548;DHT22;22551;52.206;4.856;2023-08-06T22:34:36;14.10;99.90
36548;DHT22;22551;52.206;4.856;2023-08-06T22:39:39;14.20;99.90
36548;DHT22;22551;52.206;4.856;2023-08-06T22:44:41;14.10;99.90
36548;DHT22;22551;52.206;4.856;2023-08-06T22:49:45;14.10;99.90
36548;DHT22;22551;52.206;4.856;2023-08-06T22:54:48;14.00;99.90
36548;DHT22;22551;52.206;4.856;2023-08-06T22:59:50;14.00;99.90
36548;DHT22;22551;52.206;4.856;2023-08-06T23:04:54;14.10;99.90
36548;DHT22;22551;52.206;4.856;2023-08-06T23:09:56;14.10;99.90
36548;DHT22;22551;52.206;4.856;2023-08-06T23:14:59;14.10;99.90
36548;DHT22;22551;52.206;4.856;2023-08-06T23:20:03;14.10;99.90
36548;DHT22;22551;52.206;4.856;2023-08-06T23:25:07;14.20;99.90
36548;DHT22;22551;52.206;4.856;2023-08-06T23:30:10;14.20;99.90
36548;DHT22;22551;52.206;4.856;2023-08-06T23:35:15;14.30;99.90
36548;DHT22;22551;52.206;4.856;2023-08-06T23:40:18;14.30;99.90
36548;DHT22;22551;52.206;4.856;2023-08-06T23:45:21;14.30;99.90
36548;DHT22;22551;52.206;4.856;2023-08-06T23:50:25;14.30;99.90
36548;DHT22;22551;52.206;4.856;2023-08-06T23:55:29;14.40;99.90
